1919 NOT_NAMED (1919219N19124)


IBTrACS version v04r00. Visit IBTrACS website for data access.
Please direct all questions to the IBTrACS Q and A forum

Storm track - Intensity - Wind Radii - Intensity Data - Source Data - All data

Summary Information

Storm ID 1919219N19124
Start Aug 6 22Z
Landfall Aug 10 00Z, Aug 10 18Z
End Aug 10 22Z
ATCF IDs
Track status Best track data.

Storm track plot

Map of storm track

Intensity plots

No Intensity information for this storm


Radial wind information

No radial wind information for this storm


Position and Intensity Table

BASIN ISO_TIME_________ NATURE LAT LON
degrees north degrees east
WP 1919-08-06 22:00:00 NR 19.10 123.70
WP 1919-08-07 00:00:00 NR 19.14 123.51
WP 03:00:00 NR 19.21 123.22
WP 06:00:00 NR 19.29 122.94
WP 09:00:00 NR 19.37 122.68
WP 10:00:00 NR 19.40 122.60
WP 12:00:00 NR 19.47 122.44
WP 15:00:00 NR 19.58 122.23
WP 18:00:00 NR 19.71 122.06
WP 21:00:00 NR 19.85 121.93
WP 22:00:00 NR 19.90 121.90
WP 1919-08-08 00:00:00 NR 20.00 121.85
WP 03:00:00 NR 20.17 121.82
WP 06:00:00 NR 20.35 121.83
WP 09:00:00 NR 20.54 121.88
WP 10:00:00 NR 20.60 121.90
WP 12:00:00 NR 20.73 121.96
WP 15:00:00 NR 20.93 122.07
WP 18:00:00 NR 21.14 122.19
WP 21:00:00 NR 21.34 122.28
WP 22:00:00 NR 21.40 122.30
WP 1919-08-09 00:00:00 NR 21.53 122.32
WP 03:00:00 NR 21.71 122.30
WP 06:00:00 NR 21.89 122.25
WP 09:00:00 NR 22.05 122.14
WP 10:00:00 NR 22.10 122.10
WP 12:00:00 NR 22.19 122.05
WP 15:00:00 NR 22.32 121.94
WP 18:00:00 NR 22.43 121.75
WP 21:00:00 NR 22.56 121.44
WP 22:00:00 NR 22.60 121.30
WP 1919-08-10 00:00:00 NR 22.70 120.97
WP 03:00:00 NR 22.86 120.35
WP 06:00:00 NR 23.01 119.63
WP 09:00:00 NR 23.16 118.86
WP 10:00:00 NR 23.20 118.60
WP 12:00:00 NR 23.28 118.09
WP 15:00:00 NR 23.39 117.33
WP 18:00:00 NR 23.49 116.59
WP 21:00:00 NR 23.57 115.85
WP 22:00:00 NR 23.60 115.60

Source Information

Agency Information
USA
TOKYO
CMA
HKO
NEWDELHI
REUNION
BOM
NADI
WELLINGTON
DS824
TD9636 cons_worldwide_trop_cyclone_18710101-19891231-003:Line=5927
TD9635
NEUMANN
MLC

All available IBTrACS Data

SEASON BASIN SUBBASIN ISO_TIME_________ NATURE LAT LON DIST2LAND LANDFALL IFLAG USA SSHS TD9636 LAT TD9636 LON TD9636 STAGE STORM SPEED STORM DIR
Year degrees north degrees east km km 1 degrees north degrees east kts degrees
1919 WP MM 1919-08-06 22:00:00 NR 19.10 123.70 166 148 __________O___ -1 19.10 123.70 7 6 284
1919 WP MM 1919-08-07 00:00:00 NR 19.14 123.51 148 130 __________P___ -1 19.14 123.51 7 6 284
1919 WP MM 03:00:00 NR 19.21 123.22 130 118 __________P___ -1 19.21 123.22 7 6 285
1919 WP MM 06:00:00 NR 19.29 122.94 118 109 __________P___ -1 19.29 122.94 7 5 287
1919 WP MM 09:00:00 NR 19.37 122.68 119 116 __________P___ -1 19.37 122.68 7 5 290
1919 WP MM 10:00:00 NR 19.40 122.60 116 113 __________O___ -1 19.40 122.60 7 5 293
1919 WP MM 12:00:00 NR 19.47 122.44 123 123 __________P___ -1 19.47 122.44 7 5 297
1919 WP MM 15:00:00 NR 19.58 122.23 134 134 __________P___ -1 19.58 122.23 7 4 303
1919 WP MM 18:00:00 NR 19.71 122.06 145 145 __________P___ -1 19.71 122.06 7 4 314
1919 WP MM 21:00:00 NR 19.85 121.93 154 165 __________P___ -1 19.85 121.93 7 4 322
1919 WP MM 22:00:00 NR 19.90 121.90 165 165 __________O___ -1 19.90 121.90 3 3 333
1919 WP MM 1919-08-08 00:00:00 NR 20.00 121.85 172 172 __________P___ -1 20.00 121.85 3 3 344
1919 WP MM 03:00:00 NR 20.17 121.82 194 194 __________P___ -1 20.17 121.82 3 3 0
1919 WP MM 06:00:00 NR 20.35 121.83 201 187 __________P___ -1 20.35 121.83 3 4 9
1919 WP MM 09:00:00 NR 20.54 121.88 187 178 __________P___ -1 20.54 121.88 3 4 16
1919 WP MM 10:00:00 NR 20.60 121.90 178 169 __________O___ -1 20.60 121.90 4 4 22
1919 WP MM 12:00:00 NR 20.73 121.96 176 159 __________P___ -1 20.73 121.96 4 4 26
1919 WP MM 15:00:00 NR 20.93 122.07 167 152 __________P___ -1 20.93 122.07 4 5 28
1919 WP MM 18:00:00 NR 21.14 122.19 161 155 __________P___ -1 21.14 122.19 4 4 26
1919 WP MM 21:00:00 NR 21.34 122.28 159 155 __________P___ -1 21.34 122.28 4 4 21
1919 WP MM 22:00:00 NR 21.40 122.30 155 151 __________O___ -1 21.40 122.30 4 4 14
1919 WP MM 1919-08-09 00:00:00 NR 21.53 122.32 151 146 __________P___ -1 21.53 122.32 4 4 0
1919 WP MM 03:00:00 NR 21.71 122.30 146 134 __________P___ -1 21.71 122.30 4 4 349
1919 WP MM 06:00:00 NR 21.89 122.25 134 123 __________P___ -1 21.89 122.25 4 4 337
1919 WP MM 09:00:00 NR 22.05 122.14 123 123 __________P___ -1 22.05 122.14 4 4 327
1919 WP MM 10:00:00 NR 22.10 122.10 123 121 __________O___ -1 22.10 122.10 4 3 328
1919 WP MM 12:00:00 NR 22.19 122.05 121 98 __________P___ -1 22.19 122.05 4 3 325
1919 WP MM 15:00:00 NR 22.32 121.94 98 75 __________P___ -1 22.32 121.94 4 4 311
1919 WP MM 18:00:00 NR 22.43 121.75 75 38 __________P___ -1 22.43 121.75 4 5 297
1919 WP MM 21:00:00 NR 22.56 121.44 38 30 __________P___ -1 22.56 121.44 4 7 292
1919 WP MM 22:00:00 NR 22.60 121.30 30 0 __________O___ -1 22.60 121.30 4 9 288
1919 WP MM 1919-08-10 00:00:00 NR 22.70 120.97 0 0 __________P___ -1 22.70 120.97 4 11 286
1919 WP MM 03:00:00 NR 22.86 120.35 0 0 __________P___ -1 22.86 120.35 4 13 284
1919 WP MM 06:00:00 NR 23.01 119.63 52 52 __________P___ -1 23.01 119.63 4 14 282
1919 WP MM 09:00:00 NR 23.16 118.86 122 112 __________P___ -1 23.16 118.86 4 14 281
1919 WP MM 10:00:00 NR 23.20 118.60 112 67 __________O___ -1 23.20 118.60 4 14 280
1919 WP MM 12:00:00 NR 23.28 118.09 67 23 __________P___ -1 23.28 118.09 4 14 279
1919 WP MM 15:00:00 NR 23.39 117.33 23 0 __________P___ -1 23.39 117.33 4 14 278
1919 WP MM 18:00:00 NR 23.49 116.59 0 0 __________P___ -1 23.49 116.59 4 14 278
1919 WP MM 21:00:00 NR 23.57 115.85 0 0 __________P___ -1 23.57 115.85 4 14 277
1919 WP MM 22:00:00 NR 23.60 115.60 0 __________O___ -1 23.60 115.60 7 14 277